首页
METAR-TAF:

METAR-TAF

机场 :

安塔基亞, 土耳其

纬度: 36-21-46N, 经度: 36-16-56E, 海拔: 1950米

当前天气观测

该预报发布于32分钟前的10:50 UTC
风速6节,风向北转东北,在东转东南之间变化
温度 13°C
湿度 72%
气压 1019 hPa
能见度10公里或以上
散云层高于3000英尺
多云层高于10000英尺

METAR: LTDA 111050Z 03006KT 350V110 9999 SCT030 BKN100 13/08 Q1019 NOSIG

时间: 14:22 (11:22 UTC)

预报

该预报发布于3小时和42分钟前的07:40 UTC
预报有效从11日的 09点(UTC)到 11日的 18点(UTC)
风速2节,风向多变
能见度10公里或以上
散云层高于4000英尺
多云层高于10000英尺

TAF: LTDA 110740Z 1109/1118 VRB02KT 9999 SCT040 BKN100

超过4000个机场的气象观测和天气预报(METAR&TAF报告)。

可查询的气象台以黄色和红色小点在地图上表示。

将鼠标移到小点上方,可查看气象台名称。

然后点击查看天气观测和预报。

如需切换地图:点击带黑十字的绿色按钮放大地图;点击带横线的绿色按钮缩小地图;或者点击绿色箭头查看邻近地区的地图。


METAR-TAF: